createdAt,value
2023-11-03T00:00:37.700Z,98943.31
2023-11-03T00:03:07.951Z,98940.16
2023-11-03T00:05:38.420Z,98937.63
2023-11-03T00:08:05.829Z,98942.63
2023-11-03T00:10:33.010Z,98939.88
2023-11-03T00:13:03.484Z,98939.16
2023-11-03T00:15:30.771Z,98938.34
2023-11-03T00:17:58.153Z,98941.00
2023-11-03T00:20:25.155Z,98939.22
2023-11-03T00:22:52.039Z,98951.28
2023-11-03T00:25:19.032Z,98943.75
2023-11-03T00:27:47.975Z,98953.44
2023-11-03T00:30:15.563Z,98956.03
2023-11-03T00:32:43.014Z,98962.06
2023-11-03T00:35:12.459Z,98964.53
2023-11-03T00:37:40.615Z,98970.50
2023-11-03T00:40:10.185Z,98981.47
2023-11-03T00:42:37.125Z,98973.63
2023-11-03T00:45:04.220Z,98981.16
2023-11-03T00:47:31.907Z,98990.41
2023-11-03T00:49:59.126Z,98990.38
2023-11-03T00:52:27.059Z,98985.31
2023-11-03T00:54:54.952Z,98991.59
2023-11-03T00:57:22.061Z,98989.31
2023-11-03T00:59:50.843Z,98985.13
2023-11-03T01:02:18.840Z,99001.28
2023-11-03T01:04:46.537Z,98992.63
2023-11-03T01:07:13.673Z,98999.38
2023-11-03T01:09:40.652Z,98999.31
2023-11-03T01:12:08.333Z,99001.88
2023-11-03T01:14:35.550Z,99015.38
2023-11-03T01:17:04.014Z,99012.75
2023-11-03T01:19:32.498Z,99016.81
2023-11-03T01:22:01.082Z,99018.41
2023-11-03T01:24:28.326Z,99011.59
2023-11-03T01:26:55.389Z,99015.84
2023-11-03T01:29:22.863Z,99024.38
2023-11-03T01:31:50.107Z,99028.53
2023-11-03T01:34:17.382Z,99020.81
2023-11-03T01:36:44.563Z,99026.19
2023-11-03T01:39:11.734Z,99022.56
2023-11-03T01:41:38.986Z,99023.03
2023-11-03T01:44:07.801Z,99023.78
2023-11-03T01:46:37.006Z,99025.59
2023-11-03T01:49:06.760Z,99035.25
2023-11-03T01:51:38.008Z,99025.75
2023-11-03T01:54:05.548Z,99027.47
2023-11-03T01:56:36.076Z,99035.84
2023-11-03T01:59:06.797Z,99031.47
2023-11-03T02:01:36.365Z,99040.84
2023-11-03T02:04:04.038Z,99037.22
2023-11-03T02:06:31.316Z,99052.38
2023-11-03T02:08:58.212Z,99039.41
2023-11-03T02:11:30.231Z,99047.91
2023-11-03T02:13:58.546Z,99048.72
2023-11-03T02:16:26.319Z,99050.41
2023-11-03T02:18:53.775Z,99047.88
2023-11-03T02:21:20.769Z,99047.13
2023-11-03T02:23:47.760Z,99053.91
2023-11-03T02:26:14.599Z,99053.06
2023-11-03T02:28:41.862Z,99055.66
2023-11-03T02:31:08.924Z,99053.97
2023-11-03T02:33:35.929Z,99060.00
2023-11-03T02:36:05.083Z,99059.97
2023-11-03T02:38:32.000Z,99057.41
2023-11-03T02:40:58.893Z,99068.50
2023-11-03T02:43:26.038Z,99073.66
2023-11-03T02:45:53.002Z,99071.19
2023-11-03T02:48:20.014Z,99069.34
2023-11-03T02:50:47.223Z,99067.50
2023-11-03T02:53:14.351Z,99067.38
2023-11-03T02:55:41.313Z,99074.91
2023-11-03T02:58:08.702Z,99072.19
2023-11-03T03:00:38.840Z,99076.41
2023-11-03T03:03:07.190Z,99075.41
2023-11-03T03:05:35.193Z,99070.13
2023-11-03T03:08:02.662Z,99075.25
2023-11-03T03:10:29.989Z,99081.25
2023-11-03T03:12:57.405Z,99075.38
2023-11-03T03:15:24.528Z,99074.66
2023-11-03T03:17:52.246Z,99084.94
2023-11-03T03:20:19.253Z,99089.31
2023-11-03T03:22:46.260Z,99094.53
2023-11-03T03:25:13.822Z,99099.63
2023-11-03T03:27:40.734Z,99103.03
2023-11-03T03:30:08.397Z,99110.69
2023-11-03T03:32:35.404Z,99108.88
2023-11-03T03:35:02.507Z,99102.91
2023-11-03T03:37:32.850Z,99117.34
2023-11-03T03:40:00.170Z,99112.16
2023-11-03T03:42:27.192Z,99101.88
2023-11-03T03:44:54.116Z,99108.53
2023-11-03T03:47:21.104Z,99107.66
2023-11-03T03:49:48.078Z,99119.59
2023-11-03T03:52:15.561Z,99116.91
2023-11-03T03:54:42.595Z,99120.34
2023-11-03T03:57:09.564Z,99122.84
2023-11-03T03:59:36.524Z,99135.44
2023-11-03T04:02:04.528Z,99140.34
2023-11-03T04:04:31.453Z,99155.63
2023-11-03T04:06:58.525Z,99154.53
2023-11-03T04:09:26.214Z,99155.31
2023-11-03T04:11:53.088Z,99159.63
2023-11-03T04:14:20.201Z,99159.66
2023-11-03T04:16:47.178Z,99168.22
2023-11-03T04:19:14.312Z,99171.69
2023-11-03T04:21:43.709Z,99173.41
2023-11-03T04:24:10.886Z,99175.88
2023-11-03T04:26:37.881Z,99164.84
2023-11-03T04:29:05.018Z,99166.53
2023-11-03T04:31:31.926Z,99177.59
2023-11-03T04:33:59.036Z,99173.34
2023-11-03T04:36:26.067Z,99175.06
2023-11-03T04:38:53.100Z,99173.41
2023-11-03T04:41:20.001Z,99184.53
2023-11-03T04:43:47.872Z,99190.59
2023-11-03T04:46:14.908Z,99189.84
2023-11-03T04:48:41.817Z,99197.53
2023-11-03T04:51:09.682Z,99188.16
2023-11-03T04:53:36.649Z,99195.00
2023-11-03T04:56:03.820Z,99194.13
2023-11-03T04:58:30.823Z,99207.88
2023-11-03T05:00:57.745Z,99209.59
2023-11-03T05:03:24.741Z,99200.19
2023-11-03T05:05:51.796Z,99208.66
2023-11-03T05:08:18.600Z,99205.25
2023-11-03T05:10:45.495Z,99204.47
2023-11-03T05:13:12.438Z,99210.53
2023-11-03T05:15:40.563Z,99208.94
2023-11-03T05:18:07.673Z,99219.31
2023-11-03T05:20:34.764Z,99215.94
2023-11-03T05:23:02.406Z,99221.91
2023-11-03T05:25:29.364Z,99226.22
2023-11-03T05:27:56.508Z,99227.16
2023-11-03T05:30:23.952Z,99221.97
2023-11-03T05:32:51.049Z,99222.81
2023-11-03T05:35:18.160Z,99227.03
2023-11-03T05:37:46.856Z,99229.63
2023-11-03T05:40:15.388Z,99225.44
2023-11-03T05:42:42.630Z,99227.09
2023-11-03T05:45:10.130Z,99239.91
2023-11-03T05:47:37.099Z,99237.38
2023-11-03T05:50:06.188Z,99236.59
2023-11-03T05:52:33.662Z,99244.16
2023-11-03T05:55:00.706Z,99253.50
2023-11-03T05:57:27.757Z,99253.53
2023-11-03T05:59:54.662Z,99246.75
2023-11-03T06:02:21.602Z,99236.69
2023-11-03T06:04:48.541Z,99241.09
2023-11-03T06:07:17.110Z,99250.50
2023-11-03T06:09:44.117Z,99251.31
2023-11-03T06:12:12.323Z,99253.88
2023-11-03T06:14:39.291Z,99253.00
2023-11-03T06:17:06.990Z,99257.25
2023-11-03T06:19:35.335Z,99261.50
2023-11-03T06:22:02.687Z,99259.72
2023-11-03T06:24:29.814Z,99259.44
2023-11-03T06:27:00.563Z,99265.41
2023-11-03T06:29:28.468Z,99267.81
2023-11-03T06:31:55.738Z,99265.31
2023-11-03T06:34:22.852Z,99269.63
2023-11-03T06:36:50.069Z,99279.78
2023-11-03T06:39:23.932Z,99287.34
2023-11-03T06:41:51.644Z,99284.75
2023-11-03T06:44:18.559Z,99292.22
2023-11-03T06:46:45.469Z,99286.28
2023-11-03T06:49:13.974Z,99296.50
2023-11-03T06:51:47.774Z,99299.06
2023-11-03T06:54:14.794Z,99293.09
2023-11-03T06:56:43.414Z,99299.91
2023-11-03T06:59:10.524Z,99303.34
2023-11-03T07:01:37.602Z,99310.19
2023-11-03T07:04:05.665Z,99314.53
2023-11-03T07:06:32.952Z,99318.84
2023-11-03T07:08:59.864Z,99316.38
2023-11-03T07:11:26.988Z,99308.75
2023-11-03T07:13:53.849Z,99308.91
2023-11-03T07:16:21.291Z,99317.47
2023-11-03T07:18:49.378Z,99313.13
2023-11-03T07:21:17.273Z,99316.56
2023-11-03T07:23:44.348Z,99321.00
2023-11-03T07:26:14.769Z,99325.22
2023-11-03T07:28:46.917Z,99327.09
2023-11-03T07:31:14.552Z,99323.75
2023-11-03T07:33:43.028Z,99325.53
2023-11-03T07:36:11.480Z,99321.28
2023-11-03T07:38:39.016Z,99329.78
2023-11-03T07:41:09.366Z,99345.03
2023-11-03T07:43:39.802Z,99338.22
2023-11-03T07:46:07.661Z,99343.25
2023-11-03T07:48:34.911Z,99343.19
2023-11-03T07:51:03.400Z,99348.94
2023-11-03T07:53:30.480Z,99359.91
2023-11-03T07:55:57.430Z,99359.00
2023-11-03T07:58:24.362Z,99361.56
2023-11-03T08:00:51.501Z,99367.63
2023-11-03T08:03:19.218Z,99383.97
2023-11-03T08:05:47.005Z,99383.97
2023-11-03T08:08:16.541Z,99394.31
2023-11-03T08:10:43.722Z,99376.44
2023-11-03T08:13:11.236Z,99396.19
2023-11-03T08:15:38.436Z,99382.50
2023-11-03T08:18:09.416Z,99375.03
2023-11-03T08:20:36.347Z,99370.78
2023-11-03T08:23:03.389Z,99366.59
2023-11-03T08:25:33.438Z,99367.47
2023-11-03T08:28:00.603Z,99381.16
2023-11-03T08:30:28.513Z,99387.16
2023-11-03T08:32:55.994Z,99388.03
2023-11-03T08:35:23.764Z,99388.94
2023-11-03T08:37:55.328Z,99389.00
2023-11-03T08:40:23.505Z,99386.47
2023-11-03T08:42:51.100Z,99383.91
2023-11-03T08:45:21.185Z,99391.69
2023-11-03T08:47:49.197Z,99389.16
2023-11-03T08:50:17.461Z,99394.44
2023-11-03T08:52:46.400Z,99397.06
2023-11-03T08:55:14.269Z,99389.59
2023-11-03T08:57:42.431Z,99390.44
2023-11-03T09:00:12.704Z,99388.63
2023-11-03T09:02:43.125Z,99390.28
2023-11-03T09:05:14.045Z,99393.66
2023-11-03T09:07:42.161Z,99395.31
2023-11-03T09:10:13.920Z,99404.84
2023-11-03T09:12:44.030Z,99403.34
2023-11-03T09:15:11.838Z,99404.06
2023-11-03T09:17:39.454Z,99404.13
2023-11-03T09:20:08.295Z,99394.94
2023-11-03T09:22:37.192Z,99399.31
2023-11-03T09:25:07.495Z,99397.59
2023-11-03T09:27:35.240Z,99387.28
2023-11-03T09:30:06.503Z,99391.34
2023-11-03T09:32:33.773Z,99387.09
2023-11-03T09:35:01.078Z,99399.06
2023-11-03T09:37:28.282Z,99407.50
2023-11-03T09:39:56.068Z,99414.38
2023-11-03T09:42:24.319Z,99419.53
2023-11-03T09:44:52.093Z,99422.16
2023-11-03T09:47:19.230Z,99429.75
2023-11-03T09:49:47.236Z,99425.41
2023-11-03T09:52:17.818Z,99428.84
2023-11-03T09:54:45.960Z,99426.41
2023-11-03T09:57:13.538Z,99433.41
2023-11-03T09:59:41.891Z,99419.75
2023-11-03T10:02:21.874Z,99415.59
2023-11-03T10:04:49.039Z,99433.41
2023-11-03T10:07:18.072Z,99426.59
2023-11-03T10:09:45.208Z,99438.63
2023-11-03T10:12:16.599Z,99437.03
2023-11-03T10:14:45.247Z,99444.19
2023-11-03T10:17:12.597Z,99452.63
2023-11-03T10:19:39.867Z,99445.84
2023-11-03T10:22:10.611Z,99460.47
2023-11-03T10:24:40.131Z,99458.00
2023-11-03T10:27:08.157Z,99461.44
2023-11-03T10:29:35.920Z,99458.00
2023-11-03T10:32:03.591Z,99461.44
2023-11-03T10:34:30.913Z,99458.19
2023-11-03T10:36:58.864Z,99454.91
2023-11-03T10:39:26.563Z,99446.50
2023-11-03T10:41:56.464Z,99441.38
2023-11-03T10:44:31.720Z,99436.31
2023-11-03T10:47:02.762Z,99443.91
2023-11-03T10:49:34.493Z,99451.69
2023-11-03T10:52:13.368Z,99452.72
2023-11-03T10:55:01.887Z,99447.69
2023-11-03T10:57:39.802Z,99445.00
2023-11-03T11:00:23.543Z,99450.03
2023-11-03T11:03:13.293Z,99452.44
2023-11-03T11:05:46.045Z,99450.41
2023-11-03T11:08:18.447Z,99460.47
2023-11-03T11:10:47.055Z,99463.91
2023-11-03T11:13:20.706Z,99468.25
2023-11-03T11:16:06.475Z,99458.13
2023-11-03T11:18:52.787Z,99460.66
2023-11-03T11:21:35.949Z,99466.72
2023-11-03T11:24:05.868Z,99477.75
2023-11-03T11:26:36.496Z,99466.66
2023-11-03T11:29:05.029Z,99463.16
2023-11-03T11:31:33.016Z,99464.72
2023-11-03T11:34:02.615Z,99468.25
2023-11-03T11:36:32.732Z,99466.53
2023-11-03T11:39:18.547Z,99470.19
2023-11-03T11:42:01.187Z,99473.75
2023-11-03T11:44:31.730Z,99468.56
2023-11-03T11:47:02.429Z,99465.13
2023-11-03T11:49:32.728Z,99462.41
2023-11-03T11:52:01.733Z,99474.34
2023-11-03T11:54:29.684Z,99477.53
2023-11-03T11:56:57.206Z,99482.53
2023-11-03T11:59:25.510Z,99484.16
2023-11-03T12:01:53.965Z,99493.56
2023-11-03T12:04:22.750Z,99492.66
2023-11-03T12:06:53.190Z,99485.88
2023-11-03T12:09:22.419Z,99491.94
2023-11-03T12:11:49.665Z,99492.88
2023-11-03T12:14:16.587Z,99478.22
2023-11-03T12:16:43.708Z,99474.66
2023-11-03T12:19:15.128Z,99478.03
2023-11-03T12:21:49.773Z,99474.63
2023-11-03T12:24:16.718Z,99477.25
2023-11-03T12:26:43.797Z,99467.88
2023-11-03T12:29:37.444Z,99473.09
2023-11-03T12:32:06.448Z,99483.31
2023-11-03T12:34:35.271Z,99490.19
2023-11-03T12:37:08.643Z,99481.69
2023-11-03T12:40:08.452Z,99475.16
2023-11-03T12:42:43.518Z,99478.59
2023-11-03T12:45:12.671Z,99484.41
2023-11-03T12:47:55.158Z,99491.00
2023-11-03T12:50:24.724Z,99490.06
2023-11-03T12:52:57.351Z,99487.63
2023-11-03T12:55:26.800Z,99499.63
2023-11-03T12:57:58.761Z,99497.97
2023-11-03T13:00:29.065Z,99502.25
2023-11-03T13:02:56.543Z,99500.56
2023-11-03T13:05:24.941Z,99491.94
2023-11-03T13:07:56.246Z,99493.59
2023-11-03T13:10:25.165Z,99494.44
2023-11-03T13:12:52.733Z,99495.28
2023-11-03T13:15:20.655Z,99496.88
2023-11-03T13:17:50.385Z,99498.44
2023-11-03T13:20:23.391Z,99494.19
2023-11-03T13:23:08.683Z,99491.63
2023-11-03T13:25:38.285Z,99489.09
2023-11-03T13:28:05.701Z,99491.53
2023-11-03T13:30:32.734Z,99484.66
2023-11-03T13:32:59.985Z,99489.81
2023-11-03T13:35:27.575Z,99480.41
2023-11-03T13:37:57.735Z,99472.78
2023-11-03T13:40:27.142Z,99470.97
2023-11-03T13:42:56.035Z,99474.31
2023-11-03T13:45:25.609Z,99467.47
2023-11-03T13:48:00.323Z,99466.69
2023-11-03T13:50:31.023Z,99464.22
2023-11-03T13:52:58.021Z,99472.72
2023-11-03T13:55:28.213Z,99469.25
2023-11-03T13:58:01.497Z,99467.50
2023-11-03T14:00:29.199Z,99471.03
2023-11-03T14:02:56.117Z,99471.94
2023-11-03T14:05:23.238Z,99476.97
2023-11-03T14:07:51.795Z,99471.69
2023-11-03T14:10:20.540Z,99471.53
2023-11-03T14:12:49.374Z,99477.44
2023-11-03T14:15:19.762Z,99482.59
2023-11-03T14:17:47.152Z,99466.44
2023-11-03T14:20:16.102Z,99476.66
2023-11-03T14:22:44.085Z,99480.88
2023-11-03T14:25:13.421Z,99478.31
2023-11-03T14:27:42.155Z,99482.59
2023-11-03T14:30:13.145Z,99472.44
2023-11-03T14:32:46.880Z,99478.41
2023-11-03T14:35:14.258Z,99468.16
2023-11-03T14:37:44.803Z,99475.84
2023-11-03T14:40:16.985Z,99466.41
2023-11-03T14:42:48.730Z,99474.91
2023-11-03T14:45:21.606Z,99466.41
2023-11-03T14:47:55.560Z,99475.75
2023-11-03T14:50:22.525Z,99470.44
2023-11-03T14:52:49.627Z,99471.06
2023-11-03T14:55:22.810Z,99456.44
2023-11-03T14:57:52.740Z,99461.47
2023-11-03T15:00:22.105Z,99463.16
2023-11-03T15:02:50.874Z,99458.84
2023-11-03T15:05:18.073Z,99457.94
2023-11-03T15:07:45.270Z,99471.63
2023-11-03T15:10:15.347Z,99466.59
2023-11-03T15:12:45.548Z,99471.84
2023-11-03T15:15:14.542Z,99472.03
2023-11-03T15:17:41.778Z,99469.63
2023-11-03T15:20:16.037Z,99479.13
2023-11-03T15:22:43.476Z,99468.16
2023-11-03T15:25:15.586Z,99471.63
2023-11-03T15:27:44.182Z,99479.22
2023-11-03T15:30:12.439Z,99481.56
2023-11-03T15:32:43.137Z,99473.72
2023-11-03T15:35:10.424Z,99477.13
2023-11-03T15:37:37.634Z,99471.16
2023-11-03T15:40:13.555Z,99481.44
2023-11-03T15:42:40.634Z,99483.91
2023-11-03T15:45:10.884Z,99483.06
2023-11-03T15:47:37.779Z,99466.81
2023-11-03T15:50:05.511Z,99474.53
2023-11-03T15:52:35.200Z,99471.84
2023-11-03T15:55:03.112Z,99470.06
2023-11-03T15:57:30.805Z,99464.84
2023-11-03T15:59:59.638Z,99461.34
2023-11-03T16:02:26.713Z,99462.97
2023-11-03T16:04:54.607Z,99452.69
2023-11-03T16:07:22.015Z,99454.41
2023-11-03T16:09:51.788Z,99459.53
2023-11-03T16:12:19.005Z,99452.69
2023-11-03T16:14:46.850Z,99456.06
2023-11-03T16:17:13.979Z,99462.84
2023-11-03T16:19:40.860Z,99463.66
2023-11-03T16:22:09.073Z,99458.53
2023-11-03T16:24:35.950Z,99458.50
2023-11-03T16:27:03.013Z,99466.97
2023-11-03T16:29:30.081Z,99471.19
2023-11-03T16:31:58.144Z,99474.56
2023-11-03T16:34:27.553Z,99466.00
2023-11-03T16:37:01.534Z,99476.44
2023-11-03T16:39:32.561Z,99478.69
2023-11-03T16:42:00.888Z,99478.59
2023-11-03T16:44:28.811Z,99478.56
2023-11-03T16:46:55.908Z,99483.69
2023-11-03T16:49:24.017Z,99482.78
2023-11-03T16:51:53.431Z,99488.03
2023-11-03T16:54:20.772Z,99483.84
2023-11-03T16:56:48.106Z,99486.47
2023-11-03T16:59:15.149Z,99482.19
2023-11-03T17:01:42.049Z,99484.66
2023-11-03T17:04:10.082Z,99476.94
2023-11-03T17:06:37.197Z,99480.31
2023-11-03T17:09:04.313Z,99477.75
2023-11-03T17:11:31.335Z,99486.25
2023-11-03T17:13:58.253Z,99477.75
2023-11-03T17:16:28.054Z,99472.63
2023-11-03T17:18:54.988Z,99476.84
2023-11-03T17:21:22.087Z,99469.97
2023-11-03T17:23:50.895Z,99470.88
2023-11-03T17:26:17.935Z,99464.13
2023-11-03T17:28:45.586Z,99463.25
2023-11-03T17:31:14.267Z,99468.38
2023-11-03T17:33:46.847Z,99466.72
2023-11-03T17:36:13.991Z,99471.66
2023-11-03T17:38:40.921Z,99469.81
2023-11-03T17:41:08.174Z,99474.03
2023-11-03T17:43:35.169Z,99466.31
2023-11-03T17:46:03.505Z,99461.19
2023-11-03T17:48:30.817Z,99466.44
2023-11-03T17:50:59.050Z,99463.97
2023-11-03T17:53:26.173Z,99456.38
2023-11-03T17:55:55.396Z,99453.16
2023-11-03T17:58:22.695Z,99452.38
2023-11-03T18:00:49.982Z,99457.41
2023-11-03T18:03:17.000Z,99458.22
2023-11-03T18:05:44.840Z,99470.97
2023-11-03T18:08:12.913Z,99471.81
2023-11-03T18:10:39.962Z,99469.22
2023-11-03T18:13:08.262Z,99470.97
2023-11-03T18:15:35.798Z,99475.19
2023-11-03T18:18:04.764Z,99478.47
2023-11-03T18:20:38.177Z,99472.38
2023-11-03T18:23:09.159Z,99484.25
2023-11-03T18:25:37.009Z,99480.88
2023-11-03T18:28:04.569Z,99476.63
2023-11-03T18:30:34.508Z,99474.91
2023-11-03T18:33:01.928Z,99476.53
2023-11-03T18:35:29.053Z,99479.00
2023-11-03T18:37:56.316Z,99480.69
2023-11-03T18:40:23.931Z,99475.59
2023-11-03T18:42:51.707Z,99480.75
2023-11-03T18:45:19.021Z,99474.06
2023-11-03T18:47:46.394Z,99475.88
2023-11-03T18:52:45.877Z,99473.31
2023-11-03T18:56:06.139Z,99477.44
2023-11-03T19:07:09.560Z,99480.47
2023-11-03T19:08:23.920Z,99464.91
2023-11-03T19:10:51.158Z,99474.97
2023-11-03T19:13:19.440Z,99464.66
2023-11-03T19:15:46.792Z,99462.81
2023-11-03T19:18:13.924Z,99468.78
2023-11-03T19:20:41.382Z,99462.75
2023-11-03T19:23:08.936Z,99474.63
2023-11-03T19:25:38.130Z,99473.78
2023-11-03T19:28:08.251Z,99468.66
2023-11-03T19:30:37.352Z,99466.91
2023-11-03T19:33:05.738Z,99464.31
2023-11-03T19:35:36.972Z,99457.41
2023-11-03T19:38:03.899Z,99450.47
2023-11-03T19:40:33.778Z,99452.94
2023-11-03T19:43:01.248Z,99452.84
2023-11-03T19:45:28.246Z,99453.69
2023-11-03T19:47:58.560Z,99464.81
2023-11-03T19:50:26.118Z,99463.25
2023-11-03T19:52:53.303Z,99462.41
2023-11-03T19:55:20.716Z,99466.66
2023-11-03T19:57:48.010Z,99457.25
2023-11-03T20:00:15.708Z,99454.78
2023-11-03T20:02:42.776Z,99447.19
2023-11-03T20:05:12.106Z,99449.72
2023-11-03T20:07:39.026Z,99448.69
2023-11-03T20:10:07.517Z,99436.47
2023-11-03T20:12:37.885Z,99429.50
2023-11-03T20:15:05.084Z,99423.38
2023-11-03T20:17:32.803Z,99427.53
2023-11-03T20:20:00.145Z,99420.69
2023-11-03T20:22:29.617Z,99425.66
2023-11-03T20:24:57.011Z,99437.50
2023-11-03T20:27:23.969Z,99445.13
2023-11-03T20:29:51.326Z,99431.44
2023-11-03T20:32:18.245Z,99440.81
2023-11-03T20:34:45.214Z,99438.25
2023-11-03T20:37:12.104Z,99433.84
2023-11-03T20:39:40.077Z,99431.13
2023-11-03T20:42:08.012Z,99440.34
2023-11-03T20:44:35.230Z,99427.47
2023-11-03T20:47:02.563Z,99434.22
2023-11-03T20:49:29.420Z,99440.22
2023-11-03T20:52:00.336Z,99440.34
2023-11-03T20:54:29.271Z,99442.88
2023-11-03T20:56:56.340Z,99441.19
2023-11-03T20:59:24.205Z,99437.91
2023-11-03T21:01:52.241Z,99445.59
2023-11-03T21:04:21.184Z,99443.88
2023-11-03T21:06:48.558Z,99445.59
2023-11-03T21:09:18.235Z,99441.47
2023-11-03T21:11:45.088Z,99440.66
2023-11-03T21:14:13.314Z,99444.97
2023-11-03T21:16:40.481Z,99449.28
2023-11-03T21:19:07.683Z,99440.66
2023-11-03T21:21:34.942Z,99443.22
2023-11-03T21:24:02.840Z,99431.28
2023-11-03T21:26:29.721Z,99440.59
2023-11-03T21:28:57.469Z,99434.69
2023-11-03T21:31:26.319Z,99440.66
2023-11-03T21:33:53.315Z,99426.13
2023-11-03T21:36:25.678Z,99429.59
2023-11-03T21:38:59.021Z,99431.28
2023-11-03T21:41:26.206Z,99435.56
2023-11-03T21:43:53.873Z,99438.84
2023-11-03T21:46:28.205Z,99442.25
2023-11-03T21:48:55.222Z,99447.34
2023-11-03T21:51:22.299Z,99439.50
2023-11-03T21:53:49.354Z,99427.47
2023-11-03T21:56:16.373Z,99441.94
2023-11-03T21:58:43.828Z,99440.34
2023-11-03T22:01:11.490Z,99430.13
2023-11-03T22:03:38.836Z,99431.84
2023-11-03T22:06:07.367Z,99429.28
2023-11-03T22:08:34.756Z,99418.16
2023-11-03T22:11:01.800Z,99433.47
2023-11-03T22:13:29.993Z,99432.53
2023-11-03T22:15:58.906Z,99431.66
2023-11-03T22:18:25.868Z,99430.75
2023-11-03T22:20:54.589Z,99417.16
2023-11-03T22:23:21.866Z,99426.47
2023-11-03T22:25:49.036Z,99429.81
2023-11-03T22:28:15.973Z,99427.31
2023-11-03T22:30:43.105Z,99438.31
2023-11-03T22:33:12.678Z,99438.13
2023-11-03T22:35:40.059Z,99434.66
2023-11-03T22:38:06.948Z,99429.59
2023-11-03T22:40:33.788Z,99438.13
2023-11-03T22:43:00.694Z,99436.50
2023-11-03T22:45:27.669Z,99446.72
2023-11-03T22:47:55.362Z,99449.28
2023-11-03T22:50:22.262Z,99450.19
2023-11-03T22:52:49.136Z,99452.69
2023-11-03T22:55:16.129Z,99449.97
2023-11-03T22:57:43.087Z,99449.16
2023-11-03T23:00:12.708Z,99444.88
2023-11-03T23:02:43.251Z,99444.88
2023-11-03T23:05:10.275Z,99444.06
2023-11-03T23:07:37.314Z,99443.31
2023-11-03T23:10:04.515Z,99445.06
2023-11-03T23:12:33.212Z,99447.69
2023-11-03T23:15:00.137Z,99445.06
2023-11-03T23:17:27.069Z,99450.94
2023-11-03T23:19:53.923Z,99443.31
2023-11-03T23:22:22.028Z,99438.22
2023-11-03T23:24:50.484Z,99443.31
2023-11-03T23:27:17.494Z,99436.56
2023-11-03T23:29:44.328Z,99439.19
2023-11-03T23:32:11.193Z,99434.03
2023-11-03T23:34:38.209Z,99424.66
2023-11-03T23:37:05.564Z,99431.41
2023-11-03T23:39:34.282Z,99433.81
2023-11-03T23:42:03.371Z,99436.31
2023-11-03T23:44:30.291Z,99436.19
2023-11-03T23:46:57.240Z,99426.09
2023-11-03T23:49:24.279Z,99426.94
2023-11-03T23:51:51.271Z,99425.28
2023-11-03T23:54:18.278Z,99431.28
2023-11-03T23:56:45.149Z,99431.28
2023-11-03T23:59:12.563Z,99427.06
